Time;durP1;ratioP1;P1;durP2;ratioP2;P2;SDS_P1;SDS_P2;PMS_P1;PMS_P2;Temp;Humidity;BMP_temperature;BMP_pressure;BME280_temperature;BME280_humidity;BME280_pressure;Samples;Min_cycle;Max_cycle;Signal;HPM_P1;HPM_P2
2022/05/07 00:00:23;;;;;;;41.00;25.15;;;;;;;;;;4993388;28;20046;-84
2022/05/07 00:02:49;;;;;;;41.05;26.20;;;;;;;;;;5009982;28;20051;-84
2022/05/07 00:05:18;;;;;;;45.25;26.63;;;;;;;;;;4993651;28;20046;-84
2022/05/07 00:07:56;;;;;;;41.78;26.23;;;;;;;;;;5009742;28;20113;-84
2022/05/07 00:10:22;;;;;;;41.72;26.92;;;;;;;;;;4993316;28;20092;-84
2022/05/07 00:12:48;;;;;;;41.08;25.33;;;;;;;;;;4993062;28;20057;-84
2022/05/07 00:15:14;;;;;;;39.22;25.00;;;;;;;;;;4993505;28;20115;-84
2022/05/07 00:20:25;;;;;;;45.08;26.95;;;;;;;;;;5009775;28;20398;-84
2022/05/07 00:22:51;;;;;;;45.33;26.85;;;;;;;;;;4994462;28;20043;-84
2022/05/07 00:25:17;;;;;;;43.80;26.92;;;;;;;;;;4993144;28;20050;-84
2022/05/07 00:27:43;;;;;;;42.92;27.02;;;;;;;;;;4992951;28;20051;-83
2022/05/07 00:30:09;;;;;;;43.28;26.75;;;;;;;;;;4994980;28;20043;-84
2022/05/07 00:32:35;;;;;;;45.35;27.00;;;;;;;;;;4996766;28;20096;-83
2022/05/07 00:35:02;;;;;;;45.58;27.35;;;;;;;;;;5014052;28;20112;-83
2022/05/07 00:37:28;;;;;;;45.42;27.75;;;;;;;;;;5014184;28;20053;-84
2022/05/07 00:39:54;;;;;;;43.70;27.00;;;;;;;;;;5012840;28;20050;-84
2022/05/07 00:42:20;;;;;;;41.47;26.67;;;;;;;;;;5013922;28;20046;-83
2022/05/07 00:44:47;;;;;;;47.65;27.42;;;;;;;;;;5013865;28;20512;-84
2022/05/07 00:47:20;;;;;;;41.70;25.95;;;;;;;;;;5012515;28;20050;-84
2022/05/07 00:49:48;;;;;;;42.38;25.80;;;;;;;;;;5012629;28;20049;-84
2022/05/07 00:52:14;;;;;;;44.22;27.02;;;;;;;;;;5012488;28;20121;-84
2022/05/07 00:54:44;;;;;;;44.33;26.45;;;;;;;;;;5013752;28;20046;-84
2022/05/07 00:57:10;;;;;;;40.20;26.63;;;;;;;;;;5012852;28;20053;-83
2022/05/07 00:59:36;;;;;;;40.15;25.58;;;;;;;;;;5013079;28;20096;-83
2022/05/07 01:02:02;;;;;;;42.08;26.27;;;;;;;;;;4996438;28;20053;-84
2022/05/07 01:04:29;;;;;;;41.22;25.55;;;;;;;;;;5012591;28;20107;-84
2022/05/07 01:06:55;;;;;;;39.60;25.00;;;;;;;;;;4995986;28;20053;-84
2022/05/07 01:09:24;;;;;;;38.70;24.95;;;;;;;;;;4996378;28;20042;-84
2022/05/07 01:11:51;;;;;;;39.60;24.63;;;;;;;;;;5012477;28;20045;-84
2022/05/07 01:14:17;;;;;;;41.47;25.75;;;;;;;;;;5013739;28;20046;-84
2022/05/07 01:16:43;;;;;;;39.95;25.33;;;;;;;;;;5012380;28;20053;-84
2022/05/07 01:19:09;;;;;;;39.10;24.38;;;;;;;;;;5013579;28;20050;-84
2022/05/07 01:21:35;;;;;;;40.00;24.15;;;;;;;;;;5012489;28;20500;-84
2022/05/07 01:24:01;;;;;;;39.78;24.98;;;;;;;;;;5013331;28;20038;-84
2022/05/07 01:26:27;;;;;;;37.75;24.88;;;;;;;;;;5015912;28;20042;-84
2022/05/07 01:29:01;;;;;;;40.75;24.77;;;;;;;;;;5015832;28;20045;-84
2022/05/07 01:31:29;;;;;;;37.33;24.15;;;;;;;;;;5017111;28;20103;-84
2022/05/07 01:33:56;;;;;;;39.63;24.48;;;;;;;;;;5015681;28;20493;-84
2022/05/07 01:36:22;;;;;;;36.25;24.02;;;;;;;;;;5017226;28;20054;-84
2022/05/07 01:38:48;;;;;;;39.17;24.88;;;;;;;;;;4999500;28;20398;-84
2022/05/07 01:41:15;;;;;;;38.22;24.25;;;;;;;;;;5017274;28;20053;-84
2022/05/07 01:43:41;;;;;;;36.35;23.85;;;;;;;;;;4999677;28;20046;-84
2022/05/07 01:48:09;;;;;;;40.50;24.30;;;;;;;;;;5015573;28;20065;-84
2022/05/07 01:48:53;;;;;;;38.10;24.25;;;;;;;;;;4999564;28;20065;-84
2022/05/07 01:51:19;;;;;;;40.75;24.60;;;;;;;;;;4999145;28;20046;-84
2022/05/07 01:53:45;;;;;;;41.17;25.02;;;;;;;;;;5016325;28;20049;-84
2022/05/07 01:56:11;;;;;;;37.83;24.38;;;;;;;;;;5007900;28;20129;-84
2022/05/07 01:58:37;;;;;;;38.85;24.15;;;;;;;;;;5026301;28;20049;-84
2022/05/07 02:01:03;;;;;;;37.05;23.73;;;;;;;;;;5024320;28;20046;-84
2022/05/07 02:03:30;;;;;;;38.45;24.38;;;;;;;;;;5023247;28;20064;-84
2022/05/07 02:05:56;;;;;;;40.92;25.65;;;;;;;;;;5018121;28;20057;-84
2022/05/07 02:08:25;;;;;;;36.67;23.75;;;;;;;;;;5015466;28;19921;-84
2022/05/07 02:10:51;;;;;;;39.10;24.25;;;;;;;;;;5016456;28;20052;-84
2022/05/07 02:13:17;;;;;;;39.22;24.45;;;;;;;;;;5016492;28;20053;-84
2022/05/07 02:15:43;;;;;;;37.25;23.98;;;;;;;;;;5015357;28;20037;-84
2022/05/07 02:18:10;;;;;;;39.22;24.60;;;;;;;;;;5014927;28;20049;-84
2022/05/07 02:20:36;;;;;;;38.03;24.45;;;;;;;;;;5016249;28;20041;-84
2022/05/07 02:23:02;;;;;;;37.78;25.30;;;;;;;;;;5014823;28;20056;-83
2022/05/07 02:25:28;;;;;;;36.75;24.48;;;;;;;;;;5016279;28;20099;-84
2022/05/07 02:27:54;;;;;;;40.45;25.27;;;;;;;;;;5014774;28;20042;-84
2022/05/07 02:30:20;;;;;;;38.60;24.98;;;;;;;;;;5015074;28;20042;-84
2022/05/07 02:32:47;;;;;;;38.20;24.17;;;;;;;;;;5011213;28;20066;-84
2022/05/07 02:35:13;;;;;;;38.47;24.73;;;;;;;;;;4993739;28;20413;-84
2022/05/07 02:37:39;;;;;;;40.97;25.73;;;;;;;;;;4995252;28;20552;-83
2022/05/07 02:40:05;;;;;;;37.53;24.52;;;;;;;;;;4994942;28;20046;-83
2022/05/07 02:42:39;;;;;;;38.17;24.05;;;;;;;;;;4996196;28;20097;-84
2022/05/07 02:45:06;;;;;;;38.97;24.67;;;;;;;;;;4996151;28;20125;-84
2022/05/07 02:47:33;;;;;;;38.15;24.88;;;;;;;;;;4994834;28;20067;-84
2022/05/07 02:49:59;;;;;;;42.15;25.80;;;;;;;;;;4995284;28;20050;-84
2022/05/07 02:52:25;;;;;;;39.65;25.05;;;;;;;;;;4996011;28;20042;-84
2022/05/07 02:54:51;;;;;;;38.65;25.50;;;;;;;;;;4994720;28;20050;-84
2022/05/07 02:57:17;;;;;;;40.45;25.80;;;;;;;;;;4995010;28;20097;-84
2022/05/07 02:59:43;;;;;;;39.85;25.55;;;;;;;;;;4994663;28;20049;-84
2022/05/07 03:02:10;;;;;;;43.83;26.58;;;;;;;;;;4994538;28;20061;-84
2022/05/07 03:04:36;;;;;;;41.90;25.30;;;;;;;;;;5010769;28;20612;-84
2022/05/07 03:07:02;;;;;;;40.70;25.08;;;;;;;;;;5010883;28;20133;-84
2022/05/07 03:09:29;;;;;;;41.17;25.88;;;;;;;;;;4994429;28;20141;-84
2022/05/07 03:11:55;;;;;;;37.83;25.30;;;;;;;;;;4994404;28;20060;-84
2022/05/07 03:14:21;;;;;;;40.95;26.17;;;;;;;;;;4995348;28;20043;-84
2022/05/07 03:16:48;;;;;;;41.95;26.75;;;;;;;;;;4995617;28;20104;-84
2022/05/07 03:19:15;;;;;;;43.03;26.00;;;;;;;;;;5012414;28;20488;-84
2022/05/07 03:21:42;;;;;;;37.53;23.25;;;;;;;;;;4996411;28;20451;-84
2022/05/07 03:24:10;;;;;;;40.47;25.90;;;;;;;;;;4994408;28;20125;-84
2022/05/07 03:26:36;;;;;;;37.33;24.60;;;;;;;;;;5010664;28;20046;-84
2022/05/07 03:29:02;;;;;;;38.22;24.60;;;;;;;;;;4994131;28;20050;-84
2022/05/07 03:31:30;;;;;;;40.78;25.48;;;;;;;;;;4994145;28;20046;-84
2022/05/07 03:33:56;;;;;;;42.75;26.00;;;;;;;;;;5008838;28;20056;-84
2022/05/07 03:36:22;;;;;;;38.28;24.65;;;;;;;;;;5014747;28;20505;-84
2022/05/07 03:38:48;;;;;;;35.65;23.27;;;;;;;;;;5013700;28;20393;-84
2022/05/07 03:41:20;;;;;;;38.25;24.00;;;;;;;;;;5014766;28;20045;-84
2022/05/07 03:43:47;;;;;;;37.30;24.48;;;;;;;;;;5013505;28;20389;-84
2022/05/07 03:46:13;;;;;;;39.60;24.75;;;;;;;;;;5012844;28;20054;-84
2022/05/07 03:48:39;;;;;;;38.78;24.20;;;;;;;;;;5015487;28;20072;-84
2022/05/07 03:51:05;;;;;;;41.38;25.90;;;;;;;;;;5013541;28;20065;-84
2022/05/07 03:53:32;;;;;;;42.85;26.52;;;;;;;;;;4996814;28;20045;-84
2022/05/07 03:55:58;;;;;;;39.50;25.38;;;;;;;;;;5013539;28;20126;-84
2022/05/07 03:58:25;;;;;;;42.15;26.75;;;;;;;;;;5013245;28;20397;-84
2022/05/07 04:00:52;;;;;;;43.03;25.92;;;;;;;;;;5013548;28;20195;-84
2022/05/07 04:03:18;;;;;;;39.40;25.20;;;;;;;;;;5013011;28;20462;-84
2022/05/07 04:05:45;;;;;;;42.40;25.23;;;;;;;;;;5013217;28;20375;-84
2022/05/07 04:08:11;;;;;;;42.90;25.85;;;;;;;;;;4996467;28;20049;-84
2022/05/07 04:10:37;;;;;;;41.28;25.90;;;;;;;;;;5013105;28;20048;-84
2022/05/07 04:13:03;;;;;;;41.05;26.17;;;;;;;;;;5014116;28;20096;-84
2022/05/07 04:15:29;;;;;;;40.80;26.33;;;;;;;;;;5014236;28;20049;-84
2022/05/07 04:17:55;;;;;;;42.25;26.17;;;;;;;;;;5012968;28;20057;-84
2022/05/07 04:20:21;;;;;;;41.10;25.02;;;;;;;;;;5014037;28;20525;-84
2022/05/07 04:22:47;;;;;;;39.95;26.10;;;;;;;;;;4996736;28;20107;-84
2022/05/07 04:25:14;;;;;;;40.60;26.35;;;;;;;;;;5013014;28;20053;-84
2022/05/07 04:27:40;;;;;;;40.00;25.52;;;;;;;;;;5014085;28;20129;-84
2022/05/07 04:30:07;;;;;;;41.80;25.92;;;;;;;;;;5012809;28;20042;-84
2022/05/07 04:32:33;;;;;;;40.17;25.63;;;;;;;;;;5012473;28;20145;-84
2022/05/07 04:34:59;;;;;;;39.15;24.88;;;;;;;;;;4996578;28;20045;-84
2022/05/07 04:37:25;;;;;;;43.45;26.83;;;;;;;;;;5012634;28;20049;-84
2022/05/07 04:39:52;;;;;;;41.50;26.40;;;;;;;;;;5012585;28;20577;-84
2022/05/07 04:42:18;;;;;;;38.95;25.42;;;;;;;;;;5012982;28;20093;-84
2022/05/07 04:44:44;;;;;;;41.10;26.33;;;;;;;;;;5012654;28;20081;-84
2022/05/07 04:47:10;;;;;;;39.33;25.77;;;;;;;;;;5013815;28;20057;-84
2022/05/07 04:49:36;;;;;;;40.65;26.65;;;;;;;;;;5012449;28;20486;-84
2022/05/07 04:52:05;;;;;;;38.97;25.02;;;;;;;;;;5012470;28;20049;-84
2022/05/07 04:54:32;;;;;;;38.90;25.00;;;;;;;;;;5013592;28;20038;-84
2022/05/07 04:56:58;;;;;;;42.58;26.63;;;;;;;;;;5012575;28;20054;-84
2022/05/07 04:59:24;;;;;;;42.72;26.38;;;;;;;;;;5014678;28;20140;-84
2022/05/07 05:01:50;;;;;;;40.10;26.13;;;;;;;;;;5017701;28;20390;-84
2022/05/07 05:04:16;;;;;;;45.63;26.77;;;;;;;;;;5016231;28;20042;-84
2022/05/07 05:06:43;;;;;;;40.53;25.88;;;;;;;;;;5016410;28;20076;-84
2022/05/07 05:09:14;;;;;;;45.28;27.13;;;;;;;;;;5016142;28;20104;-84
2022/05/07 05:11:40;;;;;;;43.17;27.45;;;;;;;;;;5016538;28;20042;-84
2022/05/07 05:16:51;;;;;;;40.45;25.88;;;;;;;;;;5015969;28;20056;-84
2022/05/07 05:19:18;;;;;;;43.65;27.05;;;;;;;;;;5016101;28;20366;-83
2022/05/07 05:21:44;;;;;;;44.20;27.23;;;;;;;;;;5016308;28;20103;-84
2022/05/07 05:24:10;;;;;;;43.65;27.75;;;;;;;;;;5016344;28;20041;-83
2022/05/07 05:26:36;;;;;;;45.17;27.08;;;;;;;;;;5016187;28;20052;-83
2022/05/07 05:29:02;;;;;;;42.20;26.35;;;;;;;;;;5015955;28;20054;-84
2022/05/07 05:31:30;;;;;;;43.38;27.23;;;;;;;;;;5015758;28;20046;-84
2022/05/07 05:33:57;;;;;;;42.75;27.48;;;;;;;;;;5016996;28;20107;-84
2022/05/07 05:36:24;;;;;;;41.40;26.60;;;;;;;;;;4999538;28;20048;-83
2022/05/07 05:38:50;;;;;;;40.67;27.15;;;;;;;;;;5017236;28;20052;-84
2022/05/07 05:41:16;;;;;;;41.88;26.05;;;;;;;;;;5016866;28;20049;-84
2022/05/07 05:43:44;;;;;;;39.53;25.67;;;;;;;;;;5017353;28;20050;-83
2022/05/07 05:46:10;;;;;;;42.80;26.75;;;;;;;;;;5015744;28;20137;-84
2022/05/07 05:48:37;;;;;;;43.03;26.20;;;;;;;;;;4999697;28;20042;-84
2022/05/07 05:51:04;;;;;;;40.88;26.52;;;;;;;;;;5015608;28;20408;-84
2022/05/07 05:53:31;;;;;;;38.28;25.25;;;;;;;;;;4999355;28;20173;-85
2022/05/07 05:55:58;;;;;;;41.08;25.48;;;;;;;;;;4999183;28;20042;-85
2022/05/07 05:58:24;;;;;;;40.67;25.90;;;;;;;;;;5016147;28;20042;-84
2022/05/07 06:00:52;;;;;;;42.47;25.92;;;;;;;;;;5017653;28;20053;-84
2022/05/07 06:03:19;;;;;;;40.53;25.48;;;;;;;;;;5016673;28;20050;-84
2022/05/07 06:05:45;;;;;;;40.00;24.65;;;;;;;;;;5017390;28;20517;-85
2022/05/07 06:08:12;;;;;;;40.97;25.17;;;;;;;;;;5015194;28;20139;-84
2022/05/07 06:10:38;;;;;;;42.08;25.30;;;;;;;;;;5014900;28;20501;-84
2022/05/07 06:13:04;;;;;;;41.92;26.55;;;;;;;;;;5017028;28;20112;-84
2022/05/07 06:15:31;;;;;;;42.35;25.90;;;;;;;;;;5016729;28;20368;-84
2022/05/07 06:17:57;;;;;;;37.30;25.38;;;;;;;;;;5014926;28;20046;-84
2022/05/07 06:20:23;;;;;;;37.97;23.52;;;;;;;;;;5014987;28;20181;-84
2022/05/07 06:22:49;;;;;;;36.00;23.85;;;;;;;;;;4998718;28;20052;-84
2022/05/07 06:28:01;;;;;;;35.30;22.88;;;;;;;;;;5014526;28;20136;-85
2022/05/07 06:30:27;;;;;;;34.00;22.42;;;;;;;;;;5014816;28;20049;-84
2022/05/07 06:32:53;;;;;;;34.63;21.63;;;;;;;;;;5014702;28;20058;-84
2022/05/07 06:35:19;;;;;;;34.55;21.98;;;;;;;;;;5015826;28;20371;-84
2022/05/07 06:37:48;;;;;;;34.42;23.38;;;;;;;;;;5014719;28;20046;-85
2022/05/07 06:40:15;;;;;;;36.83;24.27;;;;;;;;;;5014266;28;20050;-85
2022/05/07 06:42:43;;;;;;;36.13;23.80;;;;;;;;;;5014440;28;20124;-85
2022/05/07 06:45:09;;;;;;;34.35;21.60;;;;;;;;;;5015144;28;20054;-85
2022/05/07 06:47:35;;;;;;;31.00;21.98;;;;;;;;;;5014412;28;20052;-85
2022/05/07 06:50:01;;;;;;;31.35;20.95;;;;;;;;;;4998482;28;20068;-85
2022/05/07 06:52:28;;;;;;;32.88;19.48;;;;;;;;;;5014495;28;20401;-85
2022/05/07 06:55:07;;;;;;;33.30;19.98;;;;;;;;;;5014126;28;20060;-85
2022/05/07 06:57:33;;;;;;;30.52;19.38;;;;;;;;;;5014081;28;20054;-85
2022/05/07 06:59:59;;;;;;;33.30;20.05;;;;;;;;;;4997965;28;20381;-84
2022/05/07 07:02:25;;;;;;;32.78;19.40;;;;;;;;;;5014432;28;20359;-85
2022/05/07 07:04:52;;;;;;;36.28;20.42;;;;;;;;;;5014165;28;20053;-85
2022/05/07 07:07:24;;;;;;;32.95;19.25;;;;;;;;;;5014711;28;20045;-85
2022/05/07 07:09:50;;;;;;;31.83;19.75;;;;;;;;;;5013840;28;20049;-85
2022/05/07 07:12:17;;;;;;;34.15;20.45;;;;;;;;;;5013996;28;20108;-85
2022/05/07 07:14:43;;;;;;;35.70;20.27;;;;;;;;;;5015084;28;20481;-85
2022/05/07 07:17:09;;;;;;;33.45;20.88;;;;;;;;;;4997616;28;20045;-85
2022/05/07 07:19:35;;;;;;;32.60;21.77;;;;;;;;;;5014206;28;20042;-85
2022/05/07 07:22:01;;;;;;;36.33;23.83;;;;;;;;;;5013262;28;20523;-85
2022/05/07 07:24:30;;;;;;;41.45;26.48;;;;;;;;;;5013754;28;20448;-85
2022/05/07 07:26:56;;;;;;;40.50;25.23;;;;;;;;;;5013639;28;20046;-85
2022/05/07 07:29:23;;;;;;;39.03;25.55;;;;;;;;;;4997544;28;20140;-85
2022/05/07 07:31:49;;;;;;;37.67;25.05;;;;;;;;;;5013613;28;20042;-85
2022/05/07 07:34:15;;;;;;;38.45;24.88;;;;;;;;;;5013461;28;20057;-85
2022/05/07 07:36:44;;;;;;;36.67;24.70;;;;;;;;;;5013798;28;20054;-85
2022/05/07 07:39:10;;;;;;;39.05;25.55;;;;;;;;;;5013497;28;20049;-85
2022/05/07 07:41:36;;;;;;;40.97;25.23;;;;;;;;;;5013496;28;20425;-85
2022/05/07 07:44:02;;;;;;;36.72;25.45;;;;;;;;;;5013543;28;20047;-85
2022/05/07 07:49:13;;;;;;;39.00;26.25;;;;;;;;;;5013392;28;20053;-85
2022/05/07 07:51:39;;;;;;;36.45;25.38;;;;;;;;;;5013504;28;20050;-85
2022/05/07 07:54:06;;;;;;;34.50;24.10;;;;;;;;;;5013122;28;20050;-85
2022/05/07 07:56:32;;;;;;;36.53;24.48;;;;;;;;;;5014548;28;20046;-85
2022/05/07 07:58:58;;;;;;;45.20;24.45;;;;;;;;;;4996823;28;20049;-85
2022/05/07 08:01:24;;;;;;;37.10;25.65;;;;;;;;;;5014572;28;20057;-85
2022/05/07 08:03:50;;;;;;;37.25;24.73;;;;;;;;;;5013163;28;20065;-85
2022/05/07 08:06:16;;;;;;;36.72;25.75;;;;;;;;;;5012937;28;20397;-85
2022/05/07 08:11:46;;;;;;;36.78;24.80;;;;;;;;;;5014126;28;20481;-85
2022/05/07 08:14:13;;;;;;;36.25;25.50;;;;;;;;;;4996434;28;20058;-85
2022/05/07 08:16:40;;;;;;;40.03;25.30;;;;;;;;;;5013200;28;20050;-85
2022/05/07 08:19:06;;;;;;;35.58;23.67;;;;;;;;;;5013329;28;20050;-84
2022/05/07 08:21:32;;;;;;;39.05;26.55;;;;;;;;;;5012725;28;20472;-85
2022/05/07 08:23:59;;;;;;;36.45;24.23;;;;;;;;;;4996388;28;20139;-85
2022/05/07 08:26:25;;;;;;;38.47;25.55;;;;;;;;;;4996365;28;20061;-85
2022/05/07 08:28:52;;;;;;;38.20;24.20;;;;;;;;;;5013025;28;20457;-84
2022/05/07 08:31:18;;;;;;;35.60;25.20;;;;;;;;;;5013759;28;20401;-85
2022/05/07 08:33:44;;;;;;;33.90;23.38;;;;;;;;;;5013576;28;20050;-84
2022/05/07 08:36:11;;;;;;;36.63;24.05;;;;;;;;;;5012854;28;20438;-85
2022/05/07 08:38:37;;;;;;;42.50;25.50;;;;;;;;;;5012789;28;20068;-84
2022/05/07 08:41:03;;;;;;;33.20;23.23;;;;;;;;;;4996596;28;20081;-85
2022/05/07 08:43:36;;;;;;;35.55;23.73;;;;;;;;;;5012654;28;20050;-85
2022/05/07 08:46:10;;;;;;;36.58;25.98;;;;;;;;;;4996222;28;20053;-85
2022/05/07 08:48:36;;;;;;;31.98;21.50;;;;;;;;;;5012317;28;20053;-85
2022/05/07 08:51:04;;;;;;;33.33;22.80;;;;;;;;;;5012750;28;20081;-85
2022/05/07 08:53:30;;;;;;;33.55;22.95;;;;;;;;;;5012439;28;20050;-85
2022/05/07 08:55:56;;;;;;;32.70;22.80;;;;;;;;;;5012639;28;20042;-84
2022/05/07 08:58:23;;;;;;;32.03;22.40;;;;;;;;;;5012865;28;20072;-85
2022/05/07 09:00:49;;;;;;;30.10;21.98;;;;;;;;;;5012595;28;20042;-85
2022/05/07 09:03:16;;;;;;;30.70;21.38;;;;;;;;;;4995996;28;20053;-85
2022/05/07 09:05:42;;;;;;;29.80;20.35;;;;;;;;;;5012612;28;20068;-85
2022/05/07 09:08:11;;;;;;;31.73;21.88;;;;;;;;;;4996082;28;20096;-85
2022/05/07 09:10:39;;;;;;;32.50;22.38;;;;;;;;;;5012837;28;20133;-85
2022/05/07 09:13:13;;;;;;;32.50;22.02;;;;;;;;;;4996031;28;20489;-85
2022/05/07 09:15:58;;;;;;;29.67;20.35;;;;;;;;;;5012368;28;20042;-85
2022/05/07 09:18:24;;;;;;;;;;;;;;;;;;5013086;28;20046;-84
2022/05/07 09:21:16;;;;;;;32.15;20.73;;;;;;;;;;5012244;28;19968;-84
2022/05/07 09:23:46;;;;;;;31.27;21.30;;;;;;;;;;5012721;28;20049;-85
2022/05/07 09:26:23;;;;;;;32.50;20.52;;;;;;;;;;5013622;28;20060;-86
2022/05/07 09:28:49;;;;;;;31.15;21.55;;;;;;;;;;5012594;28;20057;-85
2022/05/07 09:31:25;;;;;;;32.60;21.85;;;;;;;;;;5013360;28;20072;-85
2022/05/07 09:33:52;;;;;;;34.88;22.65;;;;;;;;;;5018137;28;20085;-85
2022/05/07 09:36:18;;;;;;;31.42;21.55;;;;;;;;;;5019641;28;20089;-85
2022/05/07 09:38:44;;;;;;;33.88;22.30;;;;;;;;;;5016644;28;20049;-85
2022/05/07 09:41:20;;;;;;;36.45;22.63;;;;;;;;;;5012434;28;20402;-85
2022/05/07 09:43:47;;;;;;;36.08;23.35;;;;;;;;;;5012085;28;20050;-85
2022/05/07 09:46:13;;;;;;;38.05;23.63;;;;;;;;;;5015168;28;20069;-85
2022/05/07 09:48:40;;;;;;;35.95;23.08;;;;;;;;;;5015831;28;20132;-85
2022/05/07 09:51:07;;;;;;;38.33;23.45;;;;;;;;;;5015770;28;20052;-85
2022/05/07 09:59:22;;;;;;;37.55;22.80;;;;;;;;;;4995094;28;20050;-84
2022/05/07 10:01:48;;;;;;;38.42;23.40;;;;;;;;;;4994947;28;20092;-85
2022/05/07 10:04:32;;;;;;;36.22;21.98;;;;;;;;;;4995085;28;20510;-85
2022/05/07 10:07:17;;;;;;;35.80;21.20;;;;;;;;;;4994971;28;20119;-85
2022/05/07 10:09:43;;;;;;;34.60;19.90;;;;;;;;;;4978485;28;20105;-85
2022/05/07 10:12:11;;;;;;;28.92;18.30;;;;;;;;;;4994755;28;20501;-85
2022/05/07 10:14:37;;;;;;;31.25;17.67;;;;;;;;;;4994921;28;20050;-85
2022/05/07 10:17:10;;;;;;;30.48;19.05;;;;;;;;;;4978239;28;20046;-85
2022/05/07 10:19:46;;;;;;;34.00;19.27;;;;;;;;;;4994471;28;20478;-85
2022/05/07 10:22:21;;;;;;;29.05;18.98;;;;;;;;;;4978625;28;20065;-85
2022/05/07 10:25:06;;;;;;;32.17;17.73;;;;;;;;;;4994597;28;20086;-84
2022/05/07 10:27:32;;;;;;;27.00;17.58;;;;;;;;;;5006125;28;20108;-84
2022/05/07 10:30:11;;;;;;;26.23;16.48;;;;;;;;;;5015065;28;20430;-85
2022/05/07 10:32:58;;;;;;;27.98;17.50;;;;;;;;;;5014865;28;20062;-85
2022/05/07 10:35:43;;;;;;;28.17;16.15;;;;;;;;;;4998412;28;20490;-85
2022/05/07 10:38:10;;;;;;;26.75;16.88;;;;;;;;;;5015601;28;20041;-85
2022/05/07 10:40:36;;;;;;;27.20;15.27;;;;;;;;;;5025184;28;20061;-85
2022/05/07 10:43:03;;;;;;;25.05;15.25;;;;;;;;;;5016750;28;20485;-85
2022/05/07 10:45:39;;;;;;;23.48;14.77;;;;;;;;;;5015876;28;20504;-85
2022/05/07 10:48:15;;;;;;;22.15;15.20;;;;;;;;;;5015716;28;20133;-85
2022/05/07 10:50:49;;;;;;;24.60;14.43;;;;;;;;;;5014327;28;20046;-85
2022/05/07 10:53:16;;;;;;;24.02;15.43;;;;;;;;;;5014437;28;20444;-84
2022/05/07 10:55:42;;;;;;;22.98;13.63;;;;;;;;;;5014285;28;20046;-85
2022/05/07 10:58:08;;;;;;;20.00;12.93;;;;;;;;;;5013673;28;20087;-85
2022/05/07 11:00:35;;;;;;;23.55;14.98;;;;;;;;;;5014118;28;20038;-84
2022/05/07 11:03:01;;;;;;;22.52;14.32;;;;;;;;;;4998053;28;20046;-85
2022/05/07 11:05:33;;;;;;;29.98;17.45;;;;;;;;;;5015458;28;20046;-85
2022/05/07 11:08:02;;;;;;;31.45;19.90;;;;;;;;;;5015437;28;20107;-85
2022/05/07 11:10:28;;;;;;;30.75;19.25;;;;;;;;;;5014291;28;20046;-85
2022/05/07 11:13:07;;;;;;;31.67;19.05;;;;;;;;;;5014253;28;20104;-84
2022/05/07 11:15:34;;;;;;;29.23;19.05;;;;;;;;;;5013769;28;20481;-84
2022/05/07 11:18:00;;;;;;;32.72;19.45;;;;;;;;;;5013766;28;20042;-84
2022/05/07 11:20:31;;;;;;;34.35;21.45;;;;;;;;;;5013895;28;20050;-85
2022/05/07 11:23:01;;;;;;;33.55;22.05;;;;;;;;;;5014086;28;20050;-86
2022/05/07 11:25:28;;;;;;;36.17;22.88;;;;;;;;;;4997303;28;20038;-86
2022/05/07 11:27:56;;;;;;;35.20;22.83;;;;;;;;;;5013373;28;20061;-86
2022/05/07 11:30:22;;;;;;;40.83;24.80;;;;;;;;;;4997754;28;20053;-84
2022/05/07 11:32:48;;;;;;;37.40;24.08;;;;;;;;;;5010324;28;20379;-84
2022/05/07 11:35:15;;;;;;;37.15;23.83;;;;;;;;;;4994215;28;20402;-84
2022/05/07 11:37:45;;;;;;;38.50;24.00;;;;;;;;;;5010349;28;20133;-86
2022/05/07 11:40:12;;;;;;;38.47;24.60;;;;;;;;;;4993923;28;20050;-85
2022/05/07 11:42:43;;;;;;;40.15;25.38;;;;;;;;;;4993812;28;20046;-85
2022/05/07 11:48:04;;;;;;;37.92;23.00;;;;;;;;;;5010087;28;20064;-85
2022/05/07 11:50:32;;;;;;;38.42;23.08;;;;;;;;;;4993680;28;20085;-85
2022/05/07 11:53:09;;;;;;;41.40;23.33;;;;;;;;;;4993788;28;20052;-85
2022/05/07 11:55:35;;;;;;;35.17;21.48;;;;;;;;;;4993585;28;20051;-85
2022/05/07 11:58:12;;;;;;;35.28;22.33;;;;;;;;;;4993877;28;20054;-85
2022/05/07 12:00:42;;;;;;;35.35;21.83;;;;;;;;;;5009929;28;20133;-85
2022/05/07 12:03:09;;;;;;;31.42;19.40;;;;;;;;;;4994891;28;20379;-86
2022/05/07 12:05:54;;;;;;;30.27;19.45;;;;;;;;;;5010845;28;20133;-86
2022/05/07 12:08:24;;;;;;;30.70;18.77;;;;;;;;;;4994268;28;20057;-85
2022/05/07 12:10:51;;;;;;;30.02;18.48;;;;;;;;;;4994956;28;20117;-87
2022/05/07 12:13:18;;;;;;;25.88;15.20;;;;;;;;;;4994773;28;20180;-83
2022/05/07 12:18:30;;;;;;;25.33;16.20;;;;;;;;;;4995073;28;20058;-85
2022/05/07 12:20:56;;;;;;;25.23;15.30;;;;;;;;;;5010419;28;20046;-89
2022/05/07 12:31:29;;;;;;;20.15;13.27;;;22.60;99.90;;;;;;4998944;28;20050;-83
2022/05/07 12:33:55;;;;;;;22.42;14.68;;;22.30;99.90;;;;;;4978524;28;20058;-84
2022/05/07 12:36:21;;;;;;;22.67;14.60;;;22.00;99.90;;;;;;5009711;28;20129;-88
2022/05/07 12:38:46;;;;;;;24.30;14.73;;;21.50;99.90;;;;;;4995537;28;20052;-82
2022/05/07 12:41:12;;;;;;;21.20;13.60;;;21.20;99.90;;;;;;4994236;28;20053;-85
2022/05/07 12:43:39;;;;;;;20.88;13.13;;;21.20;99.90;;;;;;4994600;28;20050;-83
2022/05/07 12:46:04;;;;;;;20.65;13.77;;;21.40;99.90;;;;;;5011595;28;20042;-83
2022/05/07 12:48:30;;;;;;;19.85;12.38;;;21.70;99.90;;;;;;4995966;28;20054;-85
2022/05/07 12:50:56;;;;;;;23.23;14.43;;;21.80;99.90;;;;;;4995029;28;20057;-84
2022/05/07 12:53:21;;;;;;;19.77;13.10;;;21.80;99.90;;;;;;4995312;28;20061;-83
2022/05/07 12:55:50;;;;;;;21.35;13.15;;;21.90;99.90;;;;;;5010652;28;20070;-82
2022/05/07 12:58:16;;;;;;;19.48;11.73;;;21.60;99.90;;;;;;4999125;23;20480;-85
2022/05/07 13:00:42;;;;;;;18.85;11.40;;;21.10;99.90;;;;;;5022107;28;20045;-82
2022/05/07 13:03:09;;;;;;;19.08;11.80;;;20.80;99.90;;;;;;5024275;28;20046;-85
2022/05/07 13:05:36;;;;;;;18.85;12.23;;;20.70;99.90;;;;;;5020410;28;20490;-82
2022/05/07 13:08:03;;;;;;;19.55;11.90;;;20.60;99.90;;;;;;5034764;28;20053;-85
2022/05/07 13:12:54;;;;;;;17.83;11.40;;;20.50;99.90;;;;;;5020970;22;20050;-83
2022/05/07 13:15:20;;;;;;;17.27;10.95;;;20.30;99.90;;;;;;4983655;28;20066;-85
2022/05/07 13:17:46;;;;;;;16.80;10.27;;;20.50;99.90;;;;;;4997463;22;20046;-86
2022/05/07 13:20:11;;;;;;;15.45;9.85;;;20.80;99.90;;;;;;4999765;28;20100;-86
2022/05/07 13:22:38;;;;;;;15.02;9.88;;;20.70;99.90;;;;;;4985589;28;20041;-83
2022/05/07 13:25:05;;;;;;;15.90;9.55;;;20.60;99.90;;;;;;5020461;28;20046;-82
2022/05/07 13:27:31;;;;;;;13.93;8.68;;;20.90;99.90;;;;;;4985828;28;20050;-82
2022/05/07 13:29:57;;;;;;;14.68;7.78;;;20.70;99.90;;;;;;5004823;28;20388;-85
2022/05/07 13:32:23;;;;;;;10.63;7.30;;;20.40;99.90;;;;;;4986804;28;20657;-84
2022/05/07 13:34:49;;;;;;;12.02;7.45;;;20.10;99.90;;;;;;5011021;23;20124;-84
2022/05/07 13:37:16;;;;;;;11.82;7.20;;;19.70;99.90;;;;;;4995187;23;20105;-83
2022/05/07 13:39:45;;;;;;;12.95;7.25;;;19.50;99.90;;;;;;4999741;23;20058;-83
2022/05/07 13:42:13;;;;;;;11.50;7.22;;;19.40;99.90;;;;;;4993039;23;20047;-85
2022/05/07 13:44:39;;;;;;;11.25;7.30;;;19.40;99.90;;;;;;4990592;23;20389;-82
2022/05/07 13:47:07;;;;;;;12.10;7.32;;;19.50;99.90;;;;;;4984224;28;20046;-84
2022/05/07 13:49:34;;;;;;;13.68;7.50;;;19.50;99.90;;;;;;4981198;28;20042;-85
2022/05/07 13:52:00;;;;;;;10.20;6.50;;;19.80;99.90;;;;;;4997306;28;20089;-83
2022/05/07 13:54:26;;;;;;;11.23;6.25;;;20.20;99.90;;;;;;4997272;28;20047;-83
2022/05/07 13:56:52;;;;;;;10.93;6.55;;;20.40;99.90;;;;;;4997117;28;20105;-85
2022/05/07 13:59:17;;;;;;;9.18;5.60;;;20.50;99.90;;;;;;4995727;28;20134;-85
2022/05/07 14:01:43;;;;;;;9.68;6.07;;;20.30;99.90;;;;;;4997119;28;20133;-85
2022/05/07 14:04:09;;;;;;;9.65;6.10;;;20.20;99.90;;;;;;4997176;28;20086;-84
2022/05/07 14:06:34;;;;;;;11.05;6.07;;;20.00;99.90;;;;;;4996764;28;20046;-83
2022/05/07 14:09:00;;;;;;;10.10;6.32;;;20.10;99.90;;;;;;4997103;28;20049;-84
2022/05/07 14:11:26;;;;;;;9.45;6.40;;;20.00;99.90;;;;;;4996926;28;20047;-84
2022/05/07 14:13:51;;;;;;;9.80;6.20;;;19.90;99.90;;;;;;4996839;28;20449;-84
2022/05/07 14:16:17;;;;;;;10.30;6.00;;;19.60;99.90;;;;;;4995450;28;20622;-83
2022/05/07 14:18:42;;;;;;;10.40;5.78;;;19.50;99.90;;;;;;4995816;28;20054;-83
2022/05/07 14:21:09;;;;;;;8.95;5.93;;;19.30;99.90;;;;;;4995886;28;20050;-85
2022/05/07 14:23:34;;;;;;;8.82;6.07;;;19.30;99.90;;;;;;4996962;28;20061;-84
2022/05/07 14:26:01;;;;;;;10.23;6.25;;;19.20;99.90;;;;;;4995607;28;20498;-83
2022/05/07 14:28:27;;;;;;;10.05;6.10;;;18.90;99.90;;;;;;5004324;28;20054;-84
2022/05/07 14:30:52;;;;;;;9.63;5.78;;;18.90;99.90;;;;;;5009989;28;20065;-83
2022/05/07 14:33:18;;;;;;;8.95;5.20;;;18.80;99.90;;;;;;5005204;28;20093;-84
2022/05/07 14:35:44;;;;;;;9.57;4.90;;;18.70;99.90;;;;;;4997064;28;20042;-83
2022/05/07 14:38:10;;;;;;;6.90;5.13;;;18.70;99.90;;;;;;4995508;28;20090;-83